JIA5111 KRDU-KDCA
Flight info
| Callsign | JIA5111 |
|---|---|
| Flight time | 0h 37m |
| Altitude | 21000 |
| Route | BEXGO5 BOUSY WAVES CAPSS4 |
| Aircraft | CRJ7/M-SDFGIRWY/S |
Departure
| Time | 2026-05-03 20:30 |
|---|---|
| Airport | Raleigh-Durham International Airport (KRDU) |
Arrival
| Time | 2026-05-03 21:08 |
|---|---|
| Airport | Ronald Reagan Washington National Airport (KDCA) |
| Time | Latitude | Longitude | Altitude | Speed | Heading |
|---|---|---|---|---|---|
| 2026-05-03 20:15 | 35.87909 | -78.79081 | 392 ft | 0 kts | 315° |
| 2026-05-03 20:18 | 35.87903 | -78.79074 | 392 ft | 1 kts | 315° |
| 2026-05-03 20:18 | 35.87896 | -78.79066 | 393 ft | 1 kts | 315° |
| 2026-05-03 20:19 | 35.87890 | -78.79057 | 393 ft | 1 kts | 315° |
| 2026-05-03 20:19 | 35.87883 | -78.79050 | 393 ft | 1 kts | 338° |
| 2026-05-03 20:19 | 35.87873 | -78.79050 | 393 ft | 1 kts | 35° |
| 2026-05-03 20:19 | 35.87868 | -78.79056 | 393 ft | 0 kts | 45° |
| 2026-05-03 20:24 | 35.87874 | -78.79048 | 393 ft | 2 kts | 45° |
| 2026-05-03 20:24 | 35.87891 | -78.79028 | 393 ft | 4 kts | 45° |
| 2026-05-03 20:24 | 35.87916 | -78.78998 | 393 ft | 6 kts | 40° |
| 2026-05-03 20:25 | 35.87952 | -78.78980 | 393 ft | 6 kts | 357° |
| 2026-05-03 20:25 | 35.87992 | -78.79009 | 393 ft | 8 kts | 314° |
| 2026-05-03 20:25 | 35.88036 | -78.79064 | 392 ft | 10 kts | 314° |
| 2026-05-03 20:25 | 35.88075 | -78.79133 | 392 ft | 10 kts | 304° |
| 2026-05-03 20:26 | 35.88102 | -78.79183 | 393 ft | 6 kts | 265° |
| 2026-05-03 20:26 | 35.88076 | -78.79228 | 392 ft | 8 kts | 225° |
| 2026-05-03 20:26 | 35.88029 | -78.79286 | 391 ft | 10 kts | 225° |
| 2026-05-03 20:26 | 35.87975 | -78.79352 | 391 ft | 12 kts | 225° |
| 2026-05-03 20:27 | 35.87915 | -78.79426 | 390 ft | 13 kts | 225° |
| 2026-05-03 20:27 | 35.87844 | -78.79515 | 388 ft | 16 kts | 225° |
| 2026-05-03 20:27 | 35.87761 | -78.79616 | 386 ft | 17 kts | 225° |
| 2026-05-03 20:27 | 35.87678 | -78.79719 | 384 ft | 13 kts | 225° |
| 2026-05-03 20:28 | 35.87608 | -78.79806 | 382 ft | 15 kts | 225° |
| 2026-05-03 20:28 | 35.87532 | -78.79898 | 382 ft | 15 kts | 224° |
| 2026-05-03 20:28 | 35.87455 | -78.79995 | 380 ft | 17 kts | 225° |
| 2026-05-03 20:28 | 35.87408 | -78.80054 | 380 ft | 7 kts | 225° |
| 2026-05-03 20:29 | 35.87399 | -78.80114 | 378 ft | 10 kts | 308° |
| 2026-05-03 20:29 | 35.87450 | -78.80169 | 376 ft | 7 kts | 353° |
| 2026-05-03 20:29 | 35.87486 | -78.80140 | 375 ft | 4 kts | 44° |
| 2026-05-03 20:29 | 35.87553 | -78.80060 | 376 ft | 39 kts | 44° |
| 2026-05-03 20:30 | 35.87943 | -78.79580 | 387 ft | 116 kts | 45° |
| 2026-05-03 20:30 | 35.88664 | -78.78696 | 408 ft | 173 kts | 44° |
| 2026-05-03 20:30 | 35.89550 | -78.77588 | 1036 ft | 176 kts | 45° |
| 2026-05-03 20:30 | 35.90396 | -78.76584 | 2166 ft | 171 kts | 40° |
| 2026-05-03 20:31 | 35.91312 | -78.75527 | 2939 ft | 187 kts | 41° |
| 2026-05-03 20:31 | 35.92335 | -78.74439 | 3683 ft | 200 kts | 36° |
| 2026-05-03 20:31 | 35.93453 | -78.73358 | 4666 ft | 204 kts | 36° |
| 2026-05-03 20:31 | 35.94554 | -78.72263 | 5518 ft | 212 kts | 35° |
| 2026-05-03 20:32 | 35.95767 | -78.71075 | 6076 ft | 234 kts | 33° |
| 2026-05-03 20:32 | 35.97112 | -78.69792 | 6660 ft | 253 kts | 31° |
| 2026-05-03 20:32 | 35.98589 | -78.68468 | 7299 ft | 270 kts | 30° |
| 2026-05-03 20:32 | 36.00157 | -78.67088 | 8031 ft | 284 kts | 31° |
| 2026-05-03 20:33 | 36.01782 | -78.65606 | 8816 ft | 295 kts | 32° |
| 2026-05-03 20:33 | 36.03448 | -78.64053 | 9660 ft | 302 kts | 32° |
| 2026-05-03 20:33 | 36.04555 | -78.63011 | 10196 ft | 302 kts | 32° |
| 2026-05-03 20:33 | 36.06763 | -78.60921 | 11197 ft | 303 kts | 31° |
| 2026-05-03 20:34 | 36.08449 | -78.59331 | 11861 ft | 306 kts | 31° |
| 2026-05-03 20:34 | 36.10157 | -78.57726 | 12507 ft | 311 kts | 31° |
| 2026-05-03 20:34 | 36.11889 | -78.56093 | 13182 ft | 314 kts | 31° |
| 2026-05-03 20:34 | 36.13632 | -78.54447 | 13842 ft | 318 kts | 31° |
| 2026-05-03 20:35 | 36.14803 | -78.53344 | 14216 ft | 320 kts | 31° |
| 2026-05-03 20:35 | 36.16581 | -78.51664 | 14809 ft | 322 kts | 30° |
| 2026-05-03 20:35 | 36.18951 | -78.49419 | 15595 ft | 325 kts | 30° |
| 2026-05-03 20:35 | 36.20750 | -78.47711 | 16168 ft | 327 kts | 30° |
| 2026-05-03 20:36 | 36.21974 | -78.46550 | 16564 ft | 329 kts | 30° |
| 2026-05-03 20:36 | 36.23823 | -78.44797 | 16701 ft | 347 kts | 31° |
| 2026-05-03 20:36 | 36.25770 | -78.42952 | 17061 ft | 355 kts | 30° |
| 2026-05-03 20:36 | 36.27743 | -78.41080 | 17621 ft | 358 kts | 31° |
| 2026-05-03 20:37 | 36.29725 | -78.39176 | 18160 ft | 361 kts | 31° |
| 2026-05-03 20:37 | 36.31726 | -78.37253 | 18644 ft | 364 kts | 30° |
| 2026-05-03 20:37 | 36.33733 | -78.35371 | 19073 ft | 368 kts | 30° |
| 2026-05-03 20:37 | 36.35794 | -78.33453 | 19488 ft | 371 kts | 29° |
| 2026-05-03 20:38 | 36.37875 | -78.31514 | 19905 ft | 376 kts | 29° |
| 2026-05-03 20:38 | 36.39982 | -78.29555 | 20311 ft | 379 kts | 29° |
| 2026-05-03 20:38 | 36.42105 | -78.27577 | 20710 ft | 383 kts | 29° |
| 2026-05-03 20:38 | 36.44263 | -78.25566 | 20938 ft | 392 kts | 29° |
| 2026-05-03 20:39 | 36.46454 | -78.23526 | 21036 ft | 405 kts | 29° |
| 2026-05-03 20:39 | 36.48743 | -78.21394 | 21098 ft | 418 kts | 29° |
| 2026-05-03 20:39 | 36.51105 | -78.19185 | 21133 ft | 431 kts | 30° |
| 2026-05-03 20:39 | 36.53532 | -78.16926 | 21145 ft | 438 kts | 30° |
| 2026-05-03 20:40 | 36.55981 | -78.14640 | 21150 ft | 440 kts | 30° |
| 2026-05-03 20:40 | 36.58432 | -78.12330 | 21154 ft | 443 kts | 30° |
| 2026-05-03 20:40 | 36.60889 | -78.10000 | 21150 ft | 444 kts | 30° |
| 2026-05-03 20:40 | 36.63355 | -78.07661 | 21150 ft | 446 kts | 30° |
| 2026-05-03 20:41 | 36.65827 | -78.05322 | 21153 ft | 447 kts | 30° |
| 2026-05-03 20:41 | 36.68319 | -78.02966 | 21153 ft | 449 kts | 30° |
| 2026-05-03 20:41 | 36.70811 | -78.00608 | 21150 ft | 450 kts | 30° |
| 2026-05-03 20:41 | 36.73289 | -77.98258 | 21144 ft | 452 kts | 30° |
| 2026-05-03 20:42 | 36.75796 | -77.95879 | 21144 ft | 453 kts | 30° |
| 2026-05-03 20:42 | 36.78308 | -77.93493 | 21100 ft | 454 kts | 30° |
| 2026-05-03 20:42 | 36.80826 | -77.91102 | 21102 ft | 455 kts | 30° |
| 2026-05-03 20:42 | 36.83467 | -77.88978 | 21093 ft | 446 kts | 20° |
| 2026-05-03 20:43 | 36.86259 | -77.87339 | 21102 ft | 443 kts | 16° |
| 2026-05-03 20:43 | 36.89094 | -77.85829 | 21101 ft | 443 kts | 15° |
| 2026-05-03 20:43 | 36.91895 | -77.84312 | 21095 ft | 445 kts | 17° |
| 2026-05-03 20:43 | 36.94716 | -77.82680 | 21088 ft | 447 kts | 18° |
| 2026-05-03 20:44 | 36.97524 | -77.81024 | 21083 ft | 447 kts | 18° |
| 2026-05-03 20:44 | 37.00353 | -77.79370 | 21086 ft | 447 kts | 18° |
| 2026-05-03 20:44 | 37.03182 | -77.77710 | 21085 ft | 448 kts | 18° |
| 2026-05-03 20:44 | 37.06007 | -77.76054 | 21088 ft | 448 kts | 18° |
| 2026-05-03 20:45 | 37.08834 | -77.74394 | 21085 ft | 448 kts | 18° |
| 2026-05-03 20:45 | 37.11626 | -77.72748 | 21086 ft | 449 kts | 18° |
| 2026-05-03 20:45 | 37.14454 | -77.71083 | 21091 ft | 449 kts | 18° |
| 2026-05-03 20:45 | 37.17284 | -77.69419 | 21088 ft | 449 kts | 18° |
| 2026-05-03 20:46 | 37.20116 | -77.67746 | 21093 ft | 449 kts | 18° |
| 2026-05-03 20:46 | 37.22944 | -77.66078 | 21090 ft | 449 kts | 18° |
| 2026-05-03 20:46 | 37.25780 | -77.64408 | 21091 ft | 449 kts | 18° |
| 2026-05-03 20:46 | 37.28609 | -77.62737 | 21090 ft | 449 kts | 18° |
| 2026-05-03 20:47 | 37.31402 | -77.61083 | 21088 ft | 449 kts | 18° |
| 2026-05-03 20:47 | 37.34232 | -77.59410 | 21085 ft | 449 kts | 18° |
| 2026-05-03 20:47 | 37.37062 | -77.57734 | 21083 ft | 449 kts | 18° |
| 2026-05-03 20:47 | 37.39892 | -77.56052 | 21084 ft | 449 kts | 18° |
| 2026-05-03 20:48 | 37.42719 | -77.54373 | 21081 ft | 449 kts | 18° |
| 2026-05-03 20:48 | 37.45543 | -77.52699 | 21082 ft | 449 kts | 18° |
| 2026-05-03 20:48 | 37.48378 | -77.51014 | 21084 ft | 449 kts | 18° |
| 2026-05-03 20:48 | 37.51208 | -77.49340 | 21087 ft | 448 kts | 18° |
| 2026-05-03 20:49 | 37.54026 | -77.47663 | 21080 ft | 447 kts | 18° |
| 2026-05-03 20:49 | 37.56830 | -77.45993 | 21079 ft | 445 kts | 18° |
| 2026-05-03 20:49 | 37.59630 | -77.44470 | 21093 ft | 438 kts | 12° |
| 2026-05-03 20:49 | 37.62531 | -77.43415 | 21091 ft | 428 kts | 6° |
| 2026-05-03 20:50 | 37.65428 | -77.42606 | 21090 ft | 422 kts | 5° |
| 2026-05-03 20:50 | 37.68275 | -77.41827 | 21091 ft | 410 kts | 5° |
| 2026-05-03 20:50 | 37.71011 | -77.41039 | 20925 ft | 396 kts | 6° |
| 2026-05-03 20:50 | 37.73657 | -77.40233 | 20634 ft | 384 kts | 6° |
| 2026-05-03 20:51 | 37.76238 | -77.39451 | 20089 ft | 379 kts | 6° |
| 2026-05-03 20:51 | 37.78745 | -77.38672 | 19610 ft | 371 kts | 6° |
| 2026-05-03 20:51 | 37.81233 | -77.37895 | 19144 ft | 368 kts | 6° |
| 2026-05-03 20:51 | 37.83728 | -77.37130 | 18683 ft | 368 kts | 6° |
| 2026-05-03 20:52 | 37.86222 | -77.36362 | 18211 ft | 369 kts | 6° |
| 2026-05-03 20:52 | 37.88718 | -77.35599 | 17740 ft | 367 kts | 6° |
| 2026-05-03 20:52 | 37.91181 | -77.34834 | 17327 ft | 363 kts | 7° |
| 2026-05-03 20:52 | 37.93634 | -77.34078 | 16827 ft | 362 kts | 7° |
| 2026-05-03 20:53 | 37.96083 | -77.33322 | 16339 ft | 361 kts | 7° |
| 2026-05-03 20:53 | 37.98484 | -77.32581 | 15865 ft | 356 kts | 7° |
| 2026-05-03 20:53 | 38.00878 | -77.31842 | 15392 ft | 352 kts | 7° |
| 2026-05-03 20:53 | 38.03247 | -77.31117 | 14936 ft | 348 kts | 7° |
| 2026-05-03 20:54 | 38.05595 | -77.30395 | 14499 ft | 344 kts | 7° |
| 2026-05-03 20:54 | 38.10210 | -77.28948 | 13609 ft | 338 kts | 8° |
| 2026-05-03 20:54 | 38.12480 | -77.28233 | 13139 ft | 335 kts | 8° |
| 2026-05-03 20:55 | 38.14734 | -77.27525 | 12676 ft | 331 kts | 8° |
| 2026-05-03 20:55 | 38.16961 | -77.26825 | 12230 ft | 328 kts | 8° |
| 2026-05-03 20:55 | 38.19164 | -77.26136 | 11800 ft | 325 kts | 8° |
| 2026-05-03 20:55 | 38.21329 | -77.25456 | 11382 ft | 323 kts | 9° |
| 2026-05-03 20:56 | 38.23496 | -77.24755 | 10980 ft | 321 kts | 9° |
| 2026-05-03 20:56 | 38.25656 | -77.24068 | 10576 ft | 318 kts | 9° |
| 2026-05-03 20:56 | 38.27798 | -77.23382 | 10171 ft | 316 kts | 9° |
| 2026-05-03 20:56 | 38.29922 | -77.22709 | 9739 ft | 312 kts | 9° |
| 2026-05-03 20:57 | 38.31982 | -77.22052 | 9301 ft | 299 kts | 9° |
| 2026-05-03 20:57 | 38.33889 | -77.21151 | 8979 ft | 291 kts | 27° |
| 2026-05-03 20:57 | 38.35503 | -77.19635 | 8648 ft | 284 kts | 35° |
| 2026-05-03 20:57 | 38.36974 | -77.17984 | 8338 ft | 282 kts | 38° |
| 2026-05-03 20:58 | 38.38400 | -77.16315 | 8027 ft | 281 kts | 38° |
| 2026-05-03 20:58 | 38.39841 | -77.14637 | 7716 ft | 280 kts | 38° |
| 2026-05-03 20:58 | 38.41274 | -77.12968 | 7425 ft | 278 kts | 39° |
| 2026-05-03 20:58 | 38.42703 | -77.11300 | 7131 ft | 277 kts | 39° |
| 2026-05-03 20:59 | 38.44127 | -77.09663 | 6850 ft | 275 kts | 38° |
| 2026-05-03 20:59 | 38.45541 | -77.08053 | 6563 ft | 269 kts | 38° |
| 2026-05-03 20:59 | 38.45994 | -77.07539 | 6475 ft | 266 kts | 38° |
| 2026-05-03 20:59 | 38.47267 | -77.06096 | 6338 ft | 254 kts | 38° |
| 2026-05-03 21:00 | 38.48554 | -77.04653 | 6188 ft | 243 kts | 37° |
| 2026-05-03 21:00 | 38.49403 | -77.03706 | 5960 ft | 244 kts | 37° |
| 2026-05-03 21:00 | 38.51109 | -77.01806 | 5592 ft | 240 kts | 34° |
| 2026-05-03 21:00 | 38.52533 | -77.01017 | 5399 ft | 220 kts | 3° |
| 2026-05-03 21:01 | 38.54006 | -77.00947 | 5223 ft | 204 kts | 353° |
| 2026-05-03 21:01 | 38.55385 | -77.01051 | 5060 ft | 195 kts | 351° |
| 2026-05-03 21:01 | 38.56749 | -77.01199 | 4815 ft | 197 kts | 350° |
| 2026-05-03 21:01 | 38.58106 | -77.01358 | 4521 ft | 197 kts | 350° |
| 2026-05-03 21:02 | 38.59477 | -77.01488 | 4265 ft | 194 kts | 352° |
| 2026-05-03 21:02 | 38.60779 | -77.01572 | 4019 ft | 187 kts | 354° |
| 2026-05-03 21:02 | 38.62074 | -77.01576 | 3871 ft | 184 kts | 354° |
| 2026-05-03 21:02 | 38.63343 | -77.01617 | 3640 ft | 180 kts | 352° |
| 2026-05-03 21:03 | 38.64579 | -77.01686 | 3489 ft | 174 kts | 352° |
| 2026-05-03 21:03 | 38.65771 | -77.01771 | 3256 ft | 169 kts | 351° |
| 2026-05-03 21:03 | 38.66937 | -77.01891 | 3068 ft | 167 kts | 349° |
| 2026-05-03 21:03 | 38.68066 | -77.02002 | 2832 ft | 155 kts | 351° |
| 2026-05-03 21:04 | 38.69099 | -77.02121 | 2502 ft | 148 kts | 348° |
| 2026-05-03 21:04 | 38.70105 | -77.02250 | 2299 ft | 141 kts | 349° |
| 2026-05-03 21:04 | 38.71046 | -77.02358 | 2251 ft | 128 kts | 348° |
| 2026-05-03 21:04 | 38.71954 | -77.02444 | 2174 ft | 131 kts | 349° |
| 2026-05-03 21:05 | 38.72878 | -77.02543 | 2211 ft | 137 kts | 349° |
| 2026-05-03 21:05 | 38.73850 | -77.02652 | 2124 ft | 146 kts | 349° |
| 2026-05-03 21:05 | 38.74864 | -77.02748 | 1891 ft | 146 kts | 351° |
| 2026-05-03 21:05 | 38.75861 | -77.02848 | 1671 ft | 141 kts | 350° |
| 2026-05-03 21:06 | 38.76834 | -77.02924 | 1474 ft | 139 kts | 350° |
| 2026-05-03 21:06 | 38.77810 | -77.03012 | 1289 ft | 143 kts | 349° |
| 2026-05-03 21:06 | 38.78788 | -77.03132 | 1062 ft | 141 kts | 347° |
| 2026-05-03 21:06 | 38.79762 | -77.03241 | 845 ft | 141 kts | 349° |
| 2026-05-03 21:07 | 38.80762 | -77.03347 | 704 ft | 145 kts | 350° |
| 2026-05-03 21:07 | 38.81765 | -77.03440 | 521 ft | 143 kts | 349° |
| 2026-05-03 21:07 | 38.82761 | -77.03531 | 328 ft | 142 kts | 348° |
| 2026-05-03 21:07 | 38.83735 | -77.03637 | 123 ft | 147 kts | 349° |
| 2026-05-03 21:08 | 38.84713 | -77.03736 | 22 ft | 121 kts | 355° |
| 2026-05-03 21:08 | 38.85297 | -77.03791 | 21 ft | 34 kts | 355° |
| 2026-05-03 21:08 | 38.85473 | -77.03821 | 25 ft | 14 kts | 335° |
| 2026-05-03 21:08 | 38.85536 | -77.03904 | 25 ft | 13 kts | 310° |
| 2026-05-03 21:09 | 38.85571 | -77.03951 | 23 ft | 7 kts | 320° |
| 2026-05-03 21:09 | 38.85618 | -77.03999 | 23 ft | 10 kts | 322° |
| 2026-05-03 21:09 | 38.85682 | -77.04061 | 23 ft | 13 kts | 323° |
| 2026-05-03 21:09 | 38.85752 | -77.04129 | 23 ft | 6 kts | 322° |
| 2026-05-03 21:10 | 38.85779 | -77.04155 | 23 ft | 5 kts | 322° |
| 2026-05-03 21:10 | 38.85803 | -77.04179 | 22 ft | 4 kts | 323° |
| 2026-05-03 21:10 | 38.85828 | -77.04203 | 22 ft | 5 kts | 323° |
| 2026-05-03 21:10 | 38.85856 | -77.04236 | 22 ft | 5 kts | 289° |
| 2026-05-03 21:11 | 38.85847 | -77.04267 | 22 ft | 4 kts | 234° |
| 2026-05-03 21:11 | 38.85831 | -77.04297 | 22 ft | 3 kts | 235° |
| 2026-05-03 21:11 | 38.85829 | -77.04301 | 22 ft | 0 kts | 235° |
| 2026-05-03 21:11 | 38.85829 | -77.04300 | 22 ft | 0 kts | 235° |
| 2026-05-03 21:12 | 38.85829 | -77.04301 | 22 ft | 0 kts | 235° |